»·PEaware :: N1399 KRNO-KMMH

N1399 :: KRNO-KMMH

FLIGHT INFORMATION

Flight Status: Arrived
Operator: Privately registered:
United States
More flights under this callsign
Pilot: David C. (16084)
Aircraft: BEECH AIRCRAFT SUPER KING AIR 350
(B350)
More flights by this aircraft type
Origin: KRNO Reno/Tahoe Intl
United States
Destination: KMMH Mammoth Yosemite
United States
More flights between these airports :: More routes between these airports
Route: +FMG8 FMG V105 YERIN NIKOL
File this flight plan on PilotEdge
Remarks:
Altitude:
(Current/Filed)
21,000ft
Speed:
(Current/Filed)
312kts
Departed: 21-Nov-20 01:09 PM
Arrived: 21-Nov-20 01:48 PM
Distance/Time
Traveled:
120nm/0:38
Distance/Time
To Go:
Arrived

Flight Plot

Page will automatically refresh every two minutes.

Flight plan parsing failed; only flown route is shown


Map Options




Map Legend


Flown Route
Filed Route
Departure Airport
Arrival Airport
Navaid (VOR, NDB)
Fix

Horizontal Profiles

Position Reports

Time Latitude Longitude Heading Altitude Ground
Speed
21-Nov-20 12:12 39.499407 -119.763679 269 4407ft 0kts
21-Nov-20 12:13 39.499407 -119.763680 269 4407ft 0kts
21-Nov-20 12:14 39.498907 -119.764025 178 4406ft 0kts
21-Nov-20 12:15 39.498907 -119.764025 178 4406ft 0kts
21-Nov-20 12:16 39.498907 -119.764025 178 4406ft 0kts
21-Nov-20 12:17 39.498907 -119.764025 178 4406ft 0kts
21-Nov-20 12:18 39.498907 -119.764025 178 4406ft 0kts
21-Nov-20 12:19 39.498907 -119.764025 178 4406ft 0kts
21-Nov-20 12:20 39.498907 -119.764025 178 4406ft 0kts
21-Nov-20 12:21 39.498907 -119.764025 178 4406ft 0kts
21-Nov-20 12:22 39.498907 -119.764025 178 4406ft 0kts
21-Nov-20 12:23 39.498907 -119.764025 178 4406ft 0kts
21-Nov-20 12:24 39.498907 -119.764025 178 4406ft 0kts
21-Nov-20 12:24 39.498907 -119.764025 178 4406ft 0kts
21-Nov-20 12:26 39.498907 -119.764025 178 4406ft 0kts
21-Nov-20 12:26 39.498907 -119.764025 178 4406ft 0kts
21-Nov-20 12:28 39.498907 -119.764025 178 4406ft 0kts
21-Nov-20 12:28 39.498907 -119.764025 178 4406ft 0kts
21-Nov-20 12:29 39.498907 -119.764025 178 4406ft 0kts
21-Nov-20 12:31 39.498907 -119.764025 178 4406ft 0kts
21-Nov-20 12:31 39.498907 -119.764025 178 4406ft 0kts
21-Nov-20 12:32 39.498907 -119.764025 178 4406ft 0kts
21-Nov-20 12:33 39.498907 -119.764025 178 4406ft 0kts
21-Nov-20 12:34 39.498907 -119.764025 178 4406ft 0kts
21-Nov-20 12:35 39.498907 -119.764025 178 4406ft 0kts
21-Nov-20 12:36 39.498907 -119.764025 178 4406ft 0kts
21-Nov-20 12:37 39.498907 -119.764025 178 4406ft 0kts
21-Nov-20 12:38 39.498907 -119.764025 178 4406ft 0kts
21-Nov-20 12:39 39.498907 -119.764025 178 4406ft 0kts
21-Nov-20 12:40 39.498907 -119.764025 178 4406ft 0kts
21-Nov-20 12:41 39.498907 -119.764025 178 4406ft 0kts
21-Nov-20 12:42 39.498907 -119.764025 178 4406ft 0kts
21-Nov-20 12:43 39.498907 -119.764025 178 4406ft 0kts
21-Nov-20 12:44 39.498907 -119.764025 178 4406ft 0kts
21-Nov-20 12:45 39.498907 -119.764025 178 4406ft 0kts
21-Nov-20 12:46 39.498907 -119.764025 178 4406ft 0kts
21-Nov-20 12:47 39.498907 -119.764025 178 4406ft 0kts
21-Nov-20 12:48 39.498907 -119.764025 178 4406ft 0kts
21-Nov-20 12:49 39.498907 -119.764025 178 4406ft 0kts
21-Nov-20 12:50 39.498907 -119.764025 178 4406ft 0kts
21-Nov-20 12:51 39.498907 -119.764025 178 4406ft 0kts
21-Nov-20 12:52 39.498907 -119.764025 178 4406ft 0kts
21-Nov-20 12:53 39.498907 -119.764025 178 4406ft 0kts
21-Nov-20 12:54 39.498906 -119.764025 178 4406ft 0kts
21-Nov-20 12:55 39.498907 -119.764025 178 4406ft 0kts
21-Nov-20 12:56 39.498907 -119.764025 178 4406ft 0kts
21-Nov-20 12:57 39.498907 -119.764025 178 4406ft 0kts
21-Nov-20 12:58 39.498907 -119.764025 178 4406ft 0kts
21-Nov-20 12:59 39.498907 -119.764025 178 4406ft 0kts
21-Nov-20 13:00 39.498852 -119.764421 345 4407ft 6kts
21-Nov-20 13:01 39.501129 -119.765676 357 4408ft 10kts
21-Nov-20 13:02 39.504661 -119.765679 0 4408ft 14kts
21-Nov-20 13:03 39.508524 -119.765675 359 4411ft 13kts
21-Nov-20 13:04 39.512028 -119.765135 359 4415ft 13kts
21-Nov-20 13:05 39.513680 -119.765642 280 4418ft 0kts
21-Nov-20 13:06 39.513680 -119.765642 280 4418ft 0kts
21-Nov-20 13:07 39.513681 -119.765649 279 4418ft 1kts
21-Nov-20 13:08 39.507415 -119.766736 179 4409ft 105kts
21-Nov-20 13:09 39.464706 -119.768997 181 5681ft 179kts
21-Nov-20 13:10 39.416182 -119.759604 121 7415ft 184kts
21-Nov-20 13:11 39.442702 -119.714445 27 9036ft 186kts
21-Nov-20 13:12 39.489049 -119.684089 27 10551ft 189kts
21-Nov-20 13:13 39.506380 -119.628015 115 11891ft 191kts
21-Nov-20 13:14 39.470141 -119.578280 135 13202ft 190kts
21-Nov-20 13:15 39.432743 -119.530683 135 14441ft 188kts
21-Nov-20 13:16 39.395412 -119.483341 135 15597ft 187kts
21-Nov-20 13:17 39.358009 -119.435974 138 17333ft 189kts
21-Nov-20 13:18 39.320396 -119.388432 140 19024ft 190kts
21-Nov-20 13:19 39.278018 -119.335374 140 19419ft 241kts
21-Nov-20 13:20 39.226103 -119.270205 139 19405ft 276kts
21-Nov-20 13:21 39.170178 -119.200112 139 20090ft 266kts
21-Nov-20 13:22 39.120116 -119.137194 141 21409ft 260kts
21-Nov-20 13:23 39.064326 -119.067989 140 21402ft 292kts
21-Nov-20 13:24 39.004247 -118.993268 141 21382ft 306kts
21-Nov-20 13:25 38.930306 -118.947208 172 21346ft 298kts
21-Nov-20 13:26 38.848877 -118.923646 173 21319ft 299kts
21-Nov-20 13:27 38.767125 -118.902226 173 21318ft 301kts
21-Nov-20 13:28 38.684625 -118.879548 173 21318ft 304kts
21-Nov-20 13:29 38.601663 -118.856688 174 21317ft 307kts
21-Nov-20 13:30 38.517583 -118.833560 174 21317ft 311kts
21-Nov-20 13:31 38.432405 -118.810167 174 21317ft 315kts
21-Nov-20 13:32 38.346422 -118.786638 174 21319ft 319kts
21-Nov-20 13:33 38.262105 -118.763342 174 21308ft 292kts
21-Nov-20 13:34 38.185831 -118.742143 175 21311ft 272kts
21-Nov-20 13:35 38.110911 -118.721892 174 20649ft 291kts
21-Nov-20 13:36 38.028481 -118.699571 172 19202ft 307kts
21-Nov-20 13:37 37.947521 -118.671946 160 17688ft 299kts
21-Nov-20 13:38 37.872332 -118.631626 160 16189ft 290kts
21-Nov-20 13:39 37.798930 -118.592199 158 14695ft 284kts
21-Nov-20 13:40 37.727059 -118.553673 157 13204ft 279kts
21-Nov-20 13:41 37.655926 -118.521136 187 11641ft 259kts
21-Nov-20 13:42 37.626478 -118.586315 262 10126ft 218kts
21-Nov-20 13:43 37.618111 -118.656222 260 9088ft 188kts
21-Nov-20 13:44 37.614998 -118.721160 273 8785ft 176kts
21-Nov-20 13:45 37.615577 -118.778687 255 7842ft 149kts
21-Nov-20 13:46 37.620506 -118.825689 287 7131ft 134kts
21-Nov-20 13:47 37.626862 -118.849106 290 7142ft 24kts
21-Nov-20 13:48 37.627166 -118.846972 108 7136ft 16kts
21-Nov-20 13:49 37.626349 -118.842334 91 7120ft 10kts
21-Nov-20 13:50 37.626684 -118.841567 56 7117ft 0kts
21-Nov-20 13:51 37.626684 -118.841567 56 7117ft 0kts

Navigation Log

Ident Type
Flight plan parsing failed, navigation log unavailable